Smyrna, Georgia
Current Conditions -  °F | °C
As of 5:58 PM on Tuesday 25 Nov 2014 (Local Time) from KMGE Reporting Station
Overcast Overcast  
Wind Chill: 55°   Ceiling: 15000
Heat Index: 55°   Visibility: 10mi
Dew Point: 29°   Wind: 5mph
Humidity: 38%   Direction: 320°NW
Pressure: 30"   Gusts: NA
Location:  33.88°N, 84.51°W
Report Text: KMGE 252258Z 32004KT 10SM SCT080 OVC150 13/M01 A3000 RMK AO2A SLP160 T01271015 $
Loading
Personal Weather Stations






























Interactive Weather Map New forecast layout! Learn more

10-Day Weather Forecast

Advertisements
Track Severe Weather on mobile